Time;durP1;ratioP1;P1;durP2;ratioP2;P2;SDS_P1;SDS_P2;PMS_P1;PMS_P2;Temp;Humidity;BMP_temperature;BMP_pressure;BME280_temperature;BME280_humidity;BME280_pressure;Samples;Min_cycle;Max_cycle;Signal;HPM_P1;HPM_P2
2022/09/20 00:00:40;;;;;;;;;3.00;2.00;;;;;20.02;52.37;100688.41;146611;597;46020;-74
2022/09/20 00:03:48;;;;;;;;;1.00;1.00;;;;;19.99;52.89;100691.88;146618;607;46013;-71
2022/09/20 00:06:44;;;;;;;;;2.33;1.00;;;;;19.98;53.18;100691.88;146624;623;46010;-70
2022/09/20 00:09:42;;;;;;;;;3.75;2.75;;;;;19.92;53.37;100681.28;146616;582;46016;-70
2022/09/20 00:12:40;;;;;;;;;2.33;2.33;;;;;19.79;53.93;100685.50;146623;633;46010;-71
2022/09/20 00:15:33;;;;;;;;;2.00;1.00;;;;;19.69;54.31;100687.13;146617;651;46915;-70
2022/09/20 00:18:41;;;;;;;;;3.75;1.75;;;;;19.55;54.53;100691.28;146616;659;46012;-69
2022/09/20 00:21:37;;;;;;;;;2.00;2.00;;;;;19.46;54.36;100689.38;146619;633;46012;-72
2022/09/20 00:24:40;;;;;;;;;2.25;2.00;;;;;19.46;54.56;100699.03;146623;684;45031;-71
2022/09/20 00:27:37;;;;;;;;;2.00;2.00;;;;;19.45;54.87;100697.25;146618;674;46032;-69
2022/09/20 00:30:33;;;;;;;;;3.50;2.50;;;;;19.44;54.89;100696.38;146609;625;46010;-70
2022/09/20 00:36:42;;;;;;;;;2.00;2.00;;;;;19.41;55.45;100700.69;146621;707;46022;-76
2022/09/20 00:39:47;;;;;;;;;;;;;;;;;;;;;
2022/09/20 00:42:46;;;;;;;;;3.00;2.75;;;;;19.49;55.00;100696.44;146623;690;46010;-75
2022/09/20 00:45:41;;;;;;;;;3.75;3.00;;;;;19.50;54.87;100692.94;146614;596;46016;-73
2022/09/20 00:48:36;;;;;;;;;4.00;2.00;;;;;19.48;54.85;100689.41;146622;564;46020;-73
2022/09/20 00:51:44;;;;;;;;;3.00;1.75;;;;;19.50;54.48;100703.47;146615;710;46016;-72
2022/09/20 00:54:37;;;;;;;;;3.25;2.25;;;;;19.46;55.47;100704.28;146621;680;46020;-72
2022/09/20 00:57:35;;;;;;;;;4.00;3.75;;;;;19.41;55.43;100711.22;146616;649;46016;-71
2022/09/20 01:00:33;;;;;;;;;5.00;2.67;;;;;19.36;55.28;100700.63;146611;666;46020;-69
2022/09/20 01:03:45;;;;;;;;;3.00;3.00;;;;;19.35;55.00;100701.50;146617;634;46014;-66
2022/09/20 01:06:49;;;;;;;;;5.00;3.00;;;;;19.30;55.71;100698.78;146622;576;46010;-72
2022/09/20 01:09:44;;;;;;;;;2.25;2.25;;;;;19.25;56.20;100702.22;146617;734;46012;-71
2022/09/20 01:12:52;;;;;;;;;;;;;;;;;;;;;
2022/09/20 01:15:55;;;;;;;;;3.00;2.00;;;;;19.07;56.45;100702.81;146618;630;46016;-71
2022/09/20 01:18:49;;;;;;;;;2.50;2.50;;;;;19.03;57.06;100693.09;146622;657;46010;-71
2022/09/20 01:21:52;;;;;;;;;3.00;3.00;;;;;18.93;57.01;100697.31;146617;602;46915;-70
2022/09/20 01:25:13;;;;;;;;;3.00;3.00;;;;;18.96;56.17;100704.38;146621;624;46021;-70
2022/09/20 01:28:05;;;;;;;;;4.25;4.00;;;;;18.93;56.77;100708.72;146618;703;46913;-70
2022/09/20 01:31:27;;;;;;;;;3.25;3.25;;;;;18.10;55.88;100553.16;146605;569;46010;-70
2022/09/20 01:34:33;;;;;;;;;3.25;3.25;;;;;19.09;57.02;100711.59;146612;587;46017;-70
2022/09/20 01:38:01;;;;;;;;;6.00;2.75;;;;;19.13;55.91;100702.91;146616;620;46029;-70
2022/09/20 01:41:27;;;;;;;;;5.00;4.00;;;;;19.10;56.54;100697.63;146613;666;46016;-71
2022/09/20 01:45:19;;;;;;;;;4.25;4.25;;;;;17.97;56.28;100526.75;146616;648;46020;-68
2022/09/20 01:48:46;;;;;;;;;3.50;2.00;;;;;17.87;57.46;100519.53;146610;635;46037;-68
2022/09/20 01:52:27;;;;;;;;;5.00;3.50;;;;;17.89;57.96;100546.69;146616;663;46020;-68
2022/09/20 01:56:11;;;;;;;;;4.00;2.25;;;;;17.65;57.92;100514.72;146611;595;46012;-72
2022/09/20 01:59:51;;;;;;;;;4.00;3.75;;;;;18.60;58.13;100687.97;146615;599;46010;-72
2022/09/20 02:03:33;;;;;;;;;4.00;4.00;;;;;18.58;57.62;100678.28;146613;638;46017;-71
2022/09/20 02:06:58;;;;;;;;;3.50;3.50;;;;;18.62;57.69;100678.38;146604;688;46020;-73
2022/09/20 02:10:24;;;;;;;;;5.00;3.25;;;;;18.68;57.90;100674.97;146609;586;46016;-71
2022/09/20 02:14:08;;;;;;;;;3.25;3.25;;;;;16.91;57.71;100369.16;146614;601;46022;-68
2022/09/20 02:17:21;;;;;;;;;7.75;4.50;;;;;18.55;59.14;100667.75;146611;578;47013;-69
2022/09/20 02:20:37;;;;;;;;;2.75;2.75;;;;;18.48;57.92;100668.50;146615;660;46020;-67
2022/09/20 02:24:13;;;;;;;;;3.00;3.00;;;;;17.42;58.03;100493.31;146610;566;47015;-71
2022/09/20 02:27:48;;;;;;;;;5.00;4.25;;;;;18.39;57.96;100671.84;146616;591;46010;-72
2022/09/20 02:31:29;;;;;;;;;4.75;4.50;;;;;16.39;57.91;100327.06;146612;638;46016;-70
2022/09/20 02:35:07;;;;;;;;;5.00;3.50;;;;;16.34;58.17;100322.59;146618;579;46020;-69
2022/09/20 02:38:22;;;;;;;;;3.00;3.00;;;;;18.28;58.62;100671.59;146613;572;46916;-68
2022/09/20 02:42:06;;;;;;;;;3.75;3.50;;;;;16.19;57.60;100317.91;146608;666;46020;-69
2022/09/20 02:45:42;;;;;;;;;4.25;3.50;;;;;15.96;57.90;100288.63;146616;636;46012;-70
2022/09/20 02:49:14;;;;;;;;;3.75;3.75;;;;;16.18;57.61;100331.84;146620;590;46010;-68
2022/09/20 02:52:32;;;;;;;;;5.00;5.00;;;;;18.17;57.70;100675.78;146615;631;46012;-71
2022/09/20 02:56:11;;;;;;;;;4.25;3.00;;;;;18.19;57.76;100671.44;146616;681;46021;-73
2022/09/20 02:59:31;;;;;;;;;7.50;5.00;;;;;18.11;58.31;100675.66;146612;683;46016;-72
2022/09/20 03:03:00;;;;;;;;;5.00;5.00;;;;;17.99;58.77;100658.81;146616;613;46021;-73
2022/09/20 03:06:20;;;;;;;;;3.25;3.25;;;;;17.92;59.64;100663.91;146613;573;46016;-73
2022/09/20 03:09:33;;;;;;;;;3.75;2.75;;;;;17.87;58.95;100660.31;146620;679;46011;-73
2022/09/20 03:13:13;;;;;;;;;3.25;2.25;;;;;15.82;58.46;100303.09;146612;604;46915;-74
2022/09/20 03:17:02;;;;;;;;;4.50;3.00;;;;;15.82;58.61;100310.94;146606;676;46021;-73
2022/09/20 03:20:37;;;;;;;;;4.50;4.50;;;;;17.83;58.20;100663.72;146612;576;46915;-73
2022/09/20 03:23:58;;;;;;;;;6.00;3.75;;;;;17.85;59.06;100664.63;146615;635;47013;-72
2022/09/20 03:27:16;;;;;;;;;5.00;3.25;;;;;17.84;58.18;100663.75;146615;574;46014;-69
2022/09/20 03:30:47;;;;;;;;;3.00;3.00;;;;;16.67;59.43;100465.53;146618;638;46020;-69
2022/09/20 03:34:35;;;;;;;;;;;;;;;;;;;;;
2022/09/20 03:38:15;;;;;;;;;3.75;2.75;;;;;17.72;59.90;100666.06;146617;622;47020;-69
2022/09/20 03:42:01;;;;;;;;;5.50;4.50;;;;;15.62;60.44;100332.25;146617;607;46012;-68
2022/09/20 03:45:36;;;;;;;;;6.00;6.00;;;;;17.60;60.57;100692.03;146618;647;47013;-71
2022/09/20 03:49:15;;;;;;;;;5.00;4.00;;;;;17.57;60.09;100702.44;146615;609;47915;-74
2022/09/20 03:52:49;;;;;;;;;3.00;3.00;;;;;17.52;60.35;100700.63;146606;670;46013;-70
2022/09/20 03:56:21;;;;;;;;;4.00;3.25;;;;;17.56;60.23;100706.81;146616;667;46016;-70
2022/09/20 03:59:57;;;;;;;;;5.00;4.00;;;;;17.61;60.07;100701.69;146618;667;46020;-70
2022/09/20 04:03:30;;;;;;;;;5.00;4.00;;;;;17.63;59.91;100699.97;146613;655;46012;-73
2022/09/20 04:06:58;;;;;;;;;7.50;5.00;;;;;17.70;59.79;100715.88;146618;569;46020;-74
2022/09/20 04:10:19;;;;;;;;;4.25;4.00;;;;;17.70;59.83;100715.00;146615;581;46016;-72
2022/09/20 04:14:06;;;;;;;;;5.00;4.25;;;;;17.65;59.97;100721.87;146619;630;46012;-69
2022/09/20 04:17:56;;;;;;;;;4.00;4.00;;;;;15.79;59.63;100457.28;146616;646;46016;-73
2022/09/20 04:21:30;;;;;;;;;3.00;3.00;;;;;17.43;59.53;100731.87;146618;655;47029;-72
2022/09/20 04:25:15;;;;;;;;;3.00;3.00;;;;;15.70;59.60;100421.34;146618;564;46013;-72
2022/09/20 04:28:40;;;;;;;;;5.75;4.50;;;;;17.52;59.81;100729.47;146612;569;46020;-72
2022/09/20 04:32:15;;;;;;;;;;;;;;;;;;;;;
2022/09/20 04:39:03;;;;;;;;;6.25;3.00;;;;;17.69;59.89;100740.31;146615;633;46017;-72
2022/09/20 04:42:44;;;;;;;;;4.50;2.75;;;;;15.81;58.89;100392.84;146620;587;46020;-73
2022/09/20 04:46:29;;;;;;;;;4.00;4.00;;;;;15.90;58.06;100382.63;146613;578;46017;-71
2022/09/20 04:50:16;;;;;;;;;4.00;3.75;;;;;16.30;57.88;100423.69;146619;575;46020;-71
2022/09/20 04:54:02;;;;;;;;;4.50;4.50;;;;;18.42;58.22;100758.53;146612;653;46017;-71
2022/09/20 04:57:33;;;;;;;;;5.75;4.00;;;;;18.64;58.24;100760.69;146618;710;46020;-70
2022/09/20 05:00:35;;;;;;;;;4.75;4.75;;;;;19.13;59.35;100764.25;146616;564;46016;-71
2022/09/20 05:04:21;;;;;;;;;7.00;7.00;;;;;18.24;55.40;100458.09;146606;698;46020;-71
2022/09/20 05:07:57;;;;;;;;;4.00;4.00;;;;;19.04;53.32;100453.13;146615;687;46017;-70
2022/09/20 05:11:35;;;;;;;;;5.75;3.25;;;;;21.11;52.00;100764.22;146620;638;46020;-70
2022/09/20 05:15:07;;;;;;;;;8.75;6.00;;;;;21.01;52.26;100770.28;146616;672;46017;-70
2022/09/20 05:18:48;;;;;;;;;6.50;6.00;;;;;20.87;52.51;100758.72;146616;663;47010;-70
2022/09/20 05:22:23;;;;;;;;;5.00;5.00;;;;;20.96;52.30;100754.41;146616;637;46015;-69
2022/09/20 05:26:23;;;;;;;;;6.25;5.25;;;;;18.80;52.89;100378.38;146622;707;46020;-68
2022/09/20 05:29:51;;;;;;;;;5.25;4.75;;;;;20.95;53.73;100754.41;146615;742;46016;-68
2022/09/20 05:33:25;;;;;;;;;10.75;8.00;;;;;20.97;54.30;100752.69;146636;635;45021;-68
2022/09/20 05:36:43;;;;;;;;;8.25;7.25;;;;;21.18;54.87;100754.59;146635;650;45017;-70
2022/09/20 05:40:28;;;;;;;;;24.00;21.75;;;;;19.59;54.18;100432.69;146630;576;45010;-69
2022/09/20 05:43:30;;;;;;;;;36.25;30.50;;;;;21.66;54.56;100750.62;146632;626;46015;-69
2022/09/20 05:46:53;;;;;;;;;38.75;32.75;;;;;20.12;53.67;100432.31;146632;598;45021;-69
2022/09/20 05:50:53;;;;;;;;;22.25;20.00;;;;;20.52;52.96;100451.06;146633;599;45876;-71
2022/09/20 05:54:34;;;;;;;;;10.75;10.25;;;;;22.59;52.35;100756.34;146636;571;45020;-71
2022/09/20 05:58:08;;;;;;;;;15.00;13.50;;;;;21.30;52.41;100464.59;146635;609;45016;-67
2022/09/20 06:01:30;;;;;;;;;9.25;9.25;;;;;21.46;51.49;100449.72;146635;581;45010;-69
2022/09/20 06:05:10;;;;;;;;;6.50;6.50;;;;;21.84;51.04;100463.00;146632;602;46924;-69
2022/09/20 06:08:43;;;;;;;;;9.00;6.75;;;;;23.65;50.13;100761.69;146635;566;45021;-70
2022/09/20 06:12:16;;;;;;;;;7.50;7.25;;;;;21.85;50.86;100437.50;146635;657;45016;-71
2022/09/20 06:15:46;;;;;;;;;5.50;5.50;;;;;22.23;51.14;100479.78;146631;586;45020;-69
2022/09/20 06:19:23;;;;;;;;;5.00;4.50;;;;;22.43;49.94;100469.22;146633;653;46915;-78
2022/09/20 06:22:48;;;;;;;;;7.50;5.00;;;;;24.25;49.92;100769.50;146635;597;45020;-70
2022/09/20 06:26:22;;;;;;;;;5.25;5.00;;;;;24.22;49.39;100771.28;146633;573;45916;-70
2022/09/20 06:29:28;;;;;;;;;7.75;5.00;;;;;24.19;49.79;100769.53;146638;576;45021;-70
2022/09/20 06:32:23;;;;;;;;;4.67;4.00;;;;;24.24;49.13;100774.78;146619;614;46012;-71
2022/09/20 06:35:32;;;;;;;;;6.25;3.25;;;;;24.31;49.07;100776.53;146620;564;46021;-71
2022/09/20 06:42:19;;;;;;;;;4.75;4.75;;;;;24.98;48.59;100775.28;146619;579;46010;-69
2022/09/20 06:45:15;;;;;;;;;5.00;4.67;;;;;25.20;48.90;100779.56;146619;656;46017;-70
2022/09/20 06:48:21;;;;;;;;;4.33;3.00;;;;;25.22;48.00;100780.44;146607;637;46020;-71
2022/09/20 06:51:26;;;;;;;;;3.50;3.50;;;;;23.40;47.91;100475.09;146611;578;47015;-71
2022/09/20 06:54:30;;;;;;;;;6.33;4.00;;;;;25.03;48.97;100776.16;146619;576;46020;-70
2022/09/20 06:57:40;;;;;;;;;8.00;5.67;;;;;24.31;48.07;100678.50;146613;640;46017;-71
2022/09/20 07:00:45;;;;;;;;;6.00;5.00;;;;;23.10;47.86;100499.91;146620;678;46020;-72
2022/09/20 07:03:41;;;;;;;;;4.25;4.25;;;;;24.66;48.14;100800.25;146617;587;46917;-72
2022/09/20 07:06:45;;;;;;;;;7.75;6.00;;;;;24.68;48.73;100805.56;146619;573;46010;-72
2022/09/20 07:09:48;;;;;;;;;6.00;4.00;;;;;24.88;48.01;100796.56;146614;652;46014;-71
2022/09/20 07:12:45;;;;;;;;;7.50;6.25;;;;;25.24;47.40;100801.69;146618;688;47011;-71
2022/09/20 07:15:38;;;;;;;;;4.75;4.75;;;;;25.59;46.62;100806.69;146618;606;46016;-72
2022/09/20 07:18:52;;;;;;;;;;;;;;;;;;;;;
2022/09/20 07:21:55;;;;;;;;;5.00;4.25;;;;;26.20;46.57;100815.81;146617;657;46012;-71
2022/09/20 07:24:55;;;;;;;;;5.00;5.00;;;;;26.41;46.53;100809.34;146618;667;46020;-71
2022/09/20 07:27:56;;;;;;;;;5.75;4.25;;;;;26.58;44.92;100810.06;146612;646;47014;-72
2022/09/20 07:30:58;;;;;;;;;5.75;4.50;;;;;26.65;45.89;100818.84;146619;572;46010;-71
2022/09/20 07:33:59;;;;;;;;;5.50;4.50;;;;;26.73;45.81;100822.28;146617;579;46013;-71
2022/09/20 07:37:06;;;;;;;;;4.25;4.25;;;;;25.26;45.31;100545.13;146623;632;46020;-71
2022/09/20 07:40:02;;;;;;;;;7.50;5.00;;;;;27.06;45.23;100826.22;146618;705;46016;-72
2022/09/20 07:43:05;;;;;;;;;5.25;5.25;;;;;27.11;43.92;100824.38;146617;644;47010;-71
2022/09/20 07:46:12;;;;;;;;;6.50;4.75;;;;;27.14;45.43;100827.03;146615;634;46917;-71
2022/09/20 07:49:32;;;;;;;;;5.50;4.75;;;;;27.20;45.45;100833.13;146616;626;46010;-70
2022/09/20 07:52:24;;;;;;;;;6.00;6.00;;;;;27.11;44.68;100836.81;146618;575;46917;-71
2022/09/20 07:55:29;;;;;;;;;4.00;4.00;;;;;27.00;44.99;100841.41;146622;569;46020;-71
2022/09/20 07:58:23;;;;;;;;;5.25;4.75;;;;;26.96;44.65;100840.56;146616;705;46016;-70
2022/09/20 08:01:31;;;;;;;;;5.00;5.00;;;;;26.98;44.49;100849.44;146619;574;46010;-70
2022/09/20 08:04:23;;;;;;;;;3.75;3.75;;;;;27.05;44.78;100848.44;146619;632;46016;-73
2022/09/20 08:07:21;;;;;;;;;5.00;5.00;;;;;27.16;44.35;100853.59;146621;621;46033;-73
2022/09/20 08:10:32;;;;;;;;;2.00;2.00;;;;;27.18;43.73;100838.50;146613;576;46013;-71
2022/09/20 08:13:28;;;;;;;;;6.00;4.00;;;;;27.23;44.18;100827.75;146620;583;46010;-71
2022/09/20 08:16:51;;;;;;;;;;;;;;;;;;;;;
2022/09/20 08:20:00;;;;;;;;;5.00;5.00;;;;;25.72;44.04;100545.41;146613;610;47010;-72
2022/09/20 08:23:02;;;;;;;;;3.50;3.00;;;;;27.42;43.53;100831.91;146615;569;46033;-72
2022/09/20 08:26:11;;;;;;;;;7.50;5.25;;;;;27.49;43.43;100833.56;146622;564;46010;-72
2022/09/20 08:29:12;;;;;;;;;5.25;4.50;;;;;27.44;42.60;100831.88;146613;573;48012;-72
2022/09/20 08:32:10;;;;;;;;;4.33;4.33;;;;;27.36;43.61;100834.69;146610;628;47010;-71
2022/09/20 08:35:07;;;;;;;;;4.33;3.67;;;;;27.38;43.84;100828.44;146616;597;46014;-70
2022/09/20 08:38:14;;;;;;;;;5.00;5.00;;;;;27.46;43.85;100822.09;146620;597;46010;-71
2022/09/20 08:42:14;;;;;;;;;;;;;;;;;;;;;
2022/09/20 08:45:30;;;;;;;;;7.00;6.33;;;;;27.56;45.79;100821.88;146623;630;47010;-71
2022/09/20 08:48:40;;;;;;;;;5.00;5.00;;;;;26.08;44.55;100548.47;146618;651;46017;-72
2022/09/20 08:51:38;;;;;;;;;6.33;4.00;;;;;27.54;43.39;100814.81;146610;589;46020;-71
2022/09/20 08:54:42;;;;;;;;;6.00;5.33;;;;;27.40;44.63;100823.06;146611;616;46016;-72
2022/09/20 08:57:47;;;;;;;;;;;;;;;;;;;;;
2022/09/20 09:01:05;;;;;;;;;4.00;4.00;;;;;27.64;44.36;100816.44;146618;631;46012;-72
2022/09/20 09:04:38;;;;;;;;;5.67;5.33;;;;;26.19;43.24;100535.87;146617;622;46021;-71
2022/09/20 09:07:43;;;;;;;;;6.00;4.33;;;;;27.91;42.65;100819.53;146614;601;47016;-75
2022/09/20 09:10:44;;;;;;;;;4.00;3.33;;;;;28.05;43.60;100814.84;146620;579;46021;-74
2022/09/20 09:13:52;;;;;;;;;5.33;5.33;;;;;28.23;43.19;100808.25;146616;565;46016;-76
2022/09/20 09:16:55;;;;;;;;;4.00;4.00;;;;;28.29;41.08;100805.47;146616;610;46021;-73
2022/09/20 09:20:21;;;;;;;;;4.00;4.00;;;;;28.28;42.28;100798.34;146613;575;46012;-72
2022/09/20 09:23:34;;;;;;;;;6.00;5.67;;;;;28.40;44.05;100800.81;146608;582;46010;-73
2022/09/20 09:26:29;;;;;;;;;3.00;3.00;;;;;28.47;42.64;100806.87;146616;569;46017;-73
2022/09/20 09:29:26;;;;;;;;;3.00;3.00;;;;;28.50;41.15;100802.34;146616;633;47010;-76
2022/09/20 09:32:36;;;;;;;;;3.50;3.50;;;;;28.52;41.90;100795.22;146614;687;46017;-72
2022/09/20 09:35:53;;;;;;;;;3.00;3.00;;;;;28.47;40.22;100797.09;146623;672;46010;-74
2022/09/20 09:39:34;;;;;;;;;4.75;4.75;;;;;26.90;42.56;100524.03;146614;590;47012;-74
2022/09/20 09:42:38;;;;;;;;;4.33;4.00;;;;;28.47;41.75;100791.75;146621;597;47012;-73
2022/09/20 09:45:41;;;;;;;;;5.00;5.00;;;;;28.47;42.69;100801.53;146616;577;46012;-74
2022/09/20 09:48:34;;;;;;;;;6.33;5.33;;;;;28.51;42.56;100801.47;146621;615;47011;-73
2022/09/20 09:51:26;;;;;;;;;4.00;4.00;;;;;28.47;42.23;100791.75;146617;594;46014;-72
2022/09/20 09:54:22;;;;;;;;;4.00;4.00;;;;;28.44;41.45;100790.94;146612;663;47013;-74
2022/09/20 09:57:41;;;;;;;;;3.00;3.00;;;;;26.95;42.83;100533.69;146616;650;46017;-73
2022/09/20 10:00:47;;;;;;;;;4.67;3.67;;;;;28.46;41.45;100794.47;146622;576;45020;-72
2022/09/20 10:04:39;;;;;;;;;3.67;3.67;;;;;27.10;39.66;100544.94;146617;590;46014;-71
2022/09/20 10:08:04;;;;;;;;;2.00;2.00;;;;;28.63;40.64;100786.09;146621;577;46020;-72
2022/09/20 10:11:57;;;;;;;;;1.00;1.00;;;;;27.14;39.63;100512.94;146614;565;48016;-73
2022/09/20 10:15:27;;;;;;;;;3.33;3.33;;;;;28.80;37.55;100785.72;146620;572;46012;-73
2022/09/20 10:18:56;;;;;;;;;2.00;2.00;;;;;28.81;39.74;100782.13;146612;571;47013;-71
2022/09/20 10:22:07;;;;;;;;;4.00;3.00;;;;;28.93;39.16;100779.16;146624;566;46020;-71
2022/09/20 10:25:49;;;;;;;;;;;;;;;;;;;;;
2022/09/20 10:29:11;;;;;;;;;2.67;2.67;;;;;28.99;37.11;100784.38;146615;579;46033;-74
2022/09/20 10:32:40;;;;;;;;;;;;;;;;;;;;;
2022/09/20 10:35:58;;;;;;;;;2.67;2.67;;;;;27.57;36.23;100495.16;146618;609;46032;-72
2022/09/20 10:39:25;;;;;;;;;2.67;2.67;;;;;29.22;38.74;100775.81;146616;657;46016;-74
2022/09/20 10:46:53;;;;;;;;;;;;;;;;;;;;;
2022/09/20 10:50:32;;;;;;;;;1.33;1.00;;;;;27.74;35.40;100468.16;146620;572;46010;-74
2022/09/20 10:54:15;;;;;;;;;1.00;1.00;;;;;27.81;34.39;100467.13;146615;570;46017;-73
2022/09/20 10:57:51;;;;;;;;;1.67;1.67;;;;;27.75;33.40;100469.91;146616;613;47008;-74
2022/09/20 11:01:08;;;;;;;;;1.00;1.00;;;;;29.46;33.59;100751.16;146618;577;46016;-73
2022/09/20 11:04:36;;;;;;;;;1.00;1.00;;;;;29.61;34.04;100754.38;146610;593;47012;-72
2022/09/20 11:08:05;;;;;;;;;1.00;1.00;;;;;29.75;35.60;100759.31;146614;591;46016;-75
2022/09/20 11:11:24;;;;;;;;;1.67;1.67;;;;;29.88;33.57;100750.94;146614;641;46916;-73
2022/09/20 11:14:30;;;;;;;;;1.67;1.67;;;;;29.93;33.28;100740.97;146612;580;46016;-73
2022/09/20 11:17:48;;;;;;;;;1.00;1.00;;;;;28.39;33.87;100471.00;146616;618;46012;-73
2022/09/20 11:21:21;;;;;;;;;2.00;1.00;;;;;30.08;34.95;100739.66;146613;594;47012;-75
2022/09/20 11:24:50;;;;;;;;;1.00;1.00;;;;;30.24;33.29;100732.09;146620;619;45022;-74
2022/09/20 11:28:25;;;;;;;;;1.33;1.00;;;;;30.37;32.85;100728.16;146617;570;46012;-71
2022/09/20 11:31:49;;;;;;;;;1.00;1.00;;;;;29.06;33.77;100470.97;146620;612;46021;-74
2022/09/20 11:35:26;;;;;;;;;0.00;0.00;;;;;28.89;33.43;100431.41;146621;582;46012;-72
2022/09/20 11:38:48;;;;;;;;;0.00;0.00;;;;;30.46;30.51;100713.59;146614;628;46021;-72
2022/09/20 11:41:54;;;;;;;;;1.00;1.00;;;;;30.38;29.14;100719.19;146614;580;47012;-73
2022/09/20 11:44:48;;;;;;;;;0.67;0.67;;;;;30.37;29.30;100722.78;146620;591;46020;-72
2022/09/20 11:48:04;;;;;;;;;1.00;1.00;;;;;30.38;31.21;100729.03;146619;589;46012;-73
2022/09/20 11:51:34;;;;;;;;;0.00;0.00;;;;;30.33;32.12;100707.75;146622;564;46010;-72
2022/09/20 11:55:26;;;;;;;;;1.00;1.00;;;;;28.80;31.75;100420.13;146613;614;48016;-73
2022/09/20 11:58:24;;;;;;;;;0.67;0.00;;;;;30.61;30.09;100699.72;146622;569;46020;-71
2022/09/20 12:01:29;;;;;;;;;1.33;0.67;;;;;30.66;27.98;100704.94;146614;575;47012;-72
2022/09/20 12:04:32;;;;;;;;;0.67;0.67;;;;;30.68;31.59;100697.72;146617;603;46012;-74
2022/09/20 12:07:33;;;;;;;;;1.33;1.00;;;;;30.73;31.10;100695.78;146616;589;47013;-73
2022/09/20 12:11:01;;;;;;;;;1.33;1.00;;;;;29.20;33.72;100433.22;146616;581;46010;-74
2022/09/20 12:14:22;;;;;;;;;2.00;1.67;;;;;30.66;34.01;100699.59;146616;632;47014;-72
2022/09/20 12:18:07;;;;;;;;;2.00;2.00;;;;;30.46;34.56;100699.34;146620;622;47010;-72
2022/09/20 12:21:03;;;;;;;;;2.00;2.00;;;;;30.31;34.21;100689.97;146610;638;48918;-73
2022/09/20 12:24:25;;;;;;;;;3.00;3.00;;;;;30.16;31.79;100707.38;146621;579;46020;-72
2022/09/20 12:28:01;;;;;;;;;2.00;2.00;;;;;28.11;34.79;100403.34;146618;647;46012;-72
2022/09/20 12:31:42;;;;;;;;;2.67;2.00;;;;;27.73;33.68;100391.81;146623;565;46023;-74
2022/09/20 12:34:59;;;;;;;;;;;;;;;;;;;;;
2022/09/20 12:38:36;;;;;;;;;2.00;2.00;;;;;28.09;36.69;100524.16;146621;604;46022;-72
2022/09/20 12:41:39;;;;;;;;;3.00;3.00;;;;;28.90;36.84;100670.69;146618;649;46016;-72
2022/09/20 12:45:26;;;;;;;;;3.00;3.00;;;;;28.86;36.41;100673.47;146616;602;46021;-71
2022/09/20 12:48:26;;;;;;;;;2.00;2.00;;;;;28.84;34.88;100669.97;146620;563;46016;-71
2022/09/20 12:55:05;;;;;;;;;;;;;;;;;;;;;
2022/09/20 12:58:33;;;;;;;;;1.00;1.00;;;;;28.43;35.94;100669.19;146619;638;47010;-73
2022/09/20 13:01:45;;;;;;;;;2.67;2.67;;;;;28.30;35.20;100668.56;146615;599;46914;-71
2022/09/20 13:04:59;;;;;;;;;2.33;1.00;;;;;28.11;36.77;100665.44;146621;569;46022;-74
2022/09/20 13:08:04;;;;;;;;;2.00;2.00;;;;;27.82;37.41;100674.94;146618;580;46915;-71
2022/09/20 13:11:21;;;;;;;;;3.33;2.00;;;;;27.66;37.51;100664.56;146622;573;46031;-71
2022/09/20 13:14:49;;;;;;;;;2.67;1.33;;;;;25.89;37.64;100369.00;146616;573;46016;-73
2022/09/20 13:17:55;;;;;;;;;1.67;1.67;;;;;27.52;36.57;100660.41;146615;579;47012;-70
2022/09/20 13:20:59;;;;;;;;;1.00;1.00;;;;;27.46;37.18;100663.19;146618;645;46016;-72
2022/09/20 13:23:58;;;;;;;;;1.00;1.00;;;;;27.31;37.55;100652.81;146623;652;46010;-71
2022/09/20 13:26:53;;;;;;;;;1.00;1.00;;;;;27.15;38.05;100661.09;146617;595;46016;-71
2022/09/20 13:29:52;;;;;;;;;1.67;1.67;;;;;27.11;38.31;100653.16;146618;634;46011;-71
2022/09/20 13:32:52;;;;;;;;;1.00;1.00;;;;;27.14;37.64;100659.34;146617;619;46026;-71
2022/09/20 13:35:51;;;;;;;;;1.00;1.00;;;;;27.26;38.35;100657.34;146617;656;46020;-72
2022/09/20 13:38:52;;;;;;;;;2.00;1.00;;;;;27.32;37.52;100652.81;146618;581;46016;-73
2022/09/20 13:42:05;;;;;;;;;1.00;1.00;;;;;25.71;37.97;100355.13;146616;563;46020;-72
2022/09/20 13:45:15;;;;;;;;;1.00;0.33;;;;;25.83;37.27;100347.88;146612;573;46012;-72
2022/09/20 13:48:24;;;;;;;;;;;;;;;;;;;;;
2022/09/20 13:51:30;;;;;;;;;0.00;0.00;;;;;27.59;37.52;100627.41;146611;588;46040;-71
2022/09/20 13:54:38;;;;;;;;;1.00;1.00;;;;;27.57;36.82;100629.25;146624;590;46010;-72
2022/09/20 13:57:46;;;;;;;;;3.33;2.33;;;;;27.55;36.88;100627.50;146615;604;46012;-73
2022/09/20 14:01:02;;;;;;;;;1.00;1.00;;;;;27.45;35.49;100631.28;146620;630;46021;-73
2022/09/20 14:04:06;;;;;;;;;1.00;1.00;;;;;27.30;36.23;100622.66;146612;620;47012;-71
2022/09/20 14:07:24;;;;;;;;;1.33;0.67;;;;;27.20;37.02;100622.84;146616;607;47010;-71
2022/09/20 14:11:12;;;;;;;;;2.00;0.67;;;;;26.39;37.37;100471.75;146615;681;46915;-71
2022/09/20 14:14:17;;;;;;;;;0.33;0.33;;;;;27.29;36.32;100620.00;146622;604;46021;-73
2022/09/20 14:17:25;;;;;;;;;1.00;1.00;;;;;26.94;37.07;100560.31;146612;585;46016;-74
2022/09/20 14:20:22;;;;;;;;;1.00;1.00;;;;;27.24;36.35;100614.78;146611;595;46020;-71
2022/09/20 14:23:33;;;;;;;;;0.67;0.67;;;;;27.23;36.93;100614.81;146613;637;47012;-71
2022/09/20 14:26:46;;;;;;;;;1.67;1.00;;;;;27.26;36.62;100615.66;146621;580;46028;-72
2022/09/20 14:30:06;;;;;;;;;1.33;1.33;;;;;27.24;37.32;100617.44;146615;597;46017;-72
2022/09/20 14:33:08;;;;;;;;;1.00;1.00;;;;;27.18;35.96;100626.44;146622;602;46010;-71
2022/09/20 14:36:26;;;;;;;;;1.67;0.33;;;;;27.07;37.10;100628.41;146614;595;46013;-72
2022/09/20 14:39:22;;;;;;;;;0.67;0.67;;;;;26.98;36.32;100625.91;146620;565;46020;-71
2022/09/20 14:43:03;;;;;;;;;2.00;1.00;;;;;26.95;36.56;100632.16;146614;611;46916;-75
2022/09/20 14:46:09;;;;;;;;;1.00;1.00;;;;;26.85;37.14;100627.88;146615;592;48012;-72
2022/09/20 14:49:43;;;;;;;;;2.67;0.00;;;;;26.78;37.22;100636.00;146616;564;47012;-75
2022/09/20 14:53:07;;;;;;;;;1.33;1.00;;;;;25.78;37.48;100480.69;146610;587;47010;-74
2022/09/20 14:56:34;;;;;;;;;1.00;1.00;;;;;25.30;37.14;100398.25;146615;614;46014;-73
2022/09/20 14:59:39;;;;;;;;;1.00;1.00;;;;;26.74;36.65;100636.97;146616;620;46021;-72
2022/09/20 15:02:39;;;;;;;;;0.67;0.33;;;;;26.71;36.37;100630.78;146614;597;46016;-72
2022/09/20 15:05:36;;;;;;;;;1.00;1.00;;;;;26.68;36.24;100632.63;146619;626;46010;-71
2022/09/20 15:08:40;;;;;;;;;0.33;0.33;;;;;26.66;35.75;100632.63;146618;651;46016;-72
2022/09/20 15:11:38;;;;;;;;;1.00;0.67;;;;;26.63;35.96;100632.66;146624;613;46010;-72
2022/09/20 15:14:40;;;;;;;;;;;;;;;;;;;;;
2022/09/20 15:18:03;;;;;;;;;2.00;1.00;;;;;26.58;36.72;100626.56;146620;572;46022;-72
2022/09/20 15:21:07;;;;;;;;;0.67;0.67;;;;;26.56;36.84;100639.00;146613;584;46016;-72
2022/09/20 15:24:01;;;;;;;;;2.00;1.00;;;;;26.55;36.31;100639.91;146608;600;46020;-72
2022/09/20 15:27:08;;;;;;;;;;;;;;;;;;;;;
2022/09/20 15:30:04;;;;;;;;;3.00;2.00;;;;;26.57;36.30;100634.56;146621;612;46020;-72
2022/09/20 15:33:09;;;;;;;;;0.67;0.67;;;;;26.52;36.38;100634.66;146613;575;46016;-72
2022/09/20 15:36:04;;;;;;;;;0.00;0.00;;;;;26.46;36.71;100635.59;146618;588;46020;-72
2022/09/20 15:38:57;;;;;;;;;4.00;1.00;;;;;26.43;36.21;100646.25;146612;571;46016;-72
2022/09/20 15:41:49;;;;;;;;;1.00;1.00;;;;;26.32;36.49;100642.00;146621;589;46021;-73
2022/09/20 15:44:41;;;;;;;;;0.67;0.67;;;;;26.24;35.65;100645.66;146611;588;46016;-71
2022/09/20 15:47:34;;;;;;;;;0.00;0.00;;;;;26.19;36.18;100644.84;146623;569;46020;-72
2022/09/20 15:50:27;;;;;;;;;0.67;0.67;;;;;26.18;36.65;100642.22;146615;615;46017;-71
2022/09/20 15:53:34;;;;;;;;;1.00;0.33;;;;;26.18;36.20;100637.78;146606;597;46029;-72
2022/09/20 15:56:43;;;;;;;;;0.00;0.00;;;;;26.18;36.34;100642.22;146614;612;46016;-71
2022/09/20 15:59:52;;;;;;;;;0.00;0.00;;;;;26.11;36.30;100638.78;146619;572;46010;-72